createdAt,value
2024-02-29T00:02:32.064Z,16.35
2024-02-29T00:07:53.782Z,16.60
2024-02-29T00:13:15.566Z,17.42
2024-02-29T00:18:37.452Z,15.95
2024-02-29T00:23:59.227Z,15.10
2024-02-29T00:29:20.986Z,13.95
2024-02-29T00:34:42.824Z,13.63
2024-02-29T00:40:05.077Z,12.43
2024-02-29T00:45:26.927Z,11.95
2024-02-29T00:50:48.889Z,12.75
2024-02-29T00:56:10.959Z,11.98
2024-02-29T01:01:32.844Z,12.63
2024-02-29T01:06:54.776Z,12.70
2024-02-29T01:12:16.574Z,11.57
2024-02-29T01:17:38.856Z,12.70
2024-02-29T01:23:01.052Z,12.13
2024-02-29T01:28:22.827Z,12.20
2024-02-29T01:33:44.849Z,27.00
2024-02-29T01:39:06.690Z,12.65
2024-02-29T01:44:28.974Z,11.60
2024-02-29T01:49:51.557Z,11.23
2024-02-29T01:55:13.934Z,12.57
2024-02-29T02:00:35.744Z,11.18
2024-02-29T02:05:57.476Z,10.65
2024-02-29T02:11:19.349Z,11.23
2024-02-29T02:16:41.821Z,10.70
2024-02-29T02:22:03.750Z,9.95
2024-02-29T02:27:25.579Z,10.07
2024-02-29T02:32:47.424Z,10.13
2024-02-29T02:38:09.225Z,11.50
2024-02-29T02:43:30.955Z,13.70
2024-02-29T02:48:52.741Z,14.40
2024-02-29T02:54:14.606Z,16.05
2024-02-29T02:59:36.409Z,15.98
2024-02-29T03:04:58.358Z,17.08
2024-02-29T03:10:20.242Z,17.17
2024-02-29T03:15:42.033Z,18.02
2024-02-29T03:21:04.930Z,19.67
2024-02-29T03:26:26.755Z,18.67
2024-02-29T03:31:48.571Z,18.65
2024-02-29T03:37:10.406Z,18.92
2024-02-29T03:42:33.072Z,18.90
2024-02-29T03:47:54.919Z,18.08
2024-02-29T03:53:16.725Z,19.00
2024-02-29T03:58:38.515Z,18.17
2024-02-29T04:04:00.401Z,19.10
2024-02-29T04:09:22.199Z,18.63
2024-02-29T04:14:43.943Z,19.77
2024-02-29T04:20:06.445Z,18.00
2024-02-29T04:25:28.191Z,17.08
2024-02-29T04:30:50.041Z,15.40
2024-02-29T04:36:11.926Z,12.98
2024-02-29T04:41:33.690Z,11.57
2024-02-29T04:46:55.445Z,11.00
2024-02-29T04:52:17.539Z,12.00
2024-02-29T04:57:39.395Z,11.50
2024-02-29T05:03:01.223Z,10.18
2024-02-29T05:08:22.997Z,10.27
2024-02-29T05:13:44.760Z,9.63
2024-02-29T05:19:06.544Z,10.02
2024-02-29T05:24:28.303Z,10.23
2024-02-29T05:29:50.051Z,9.70
2024-02-29T05:35:11.830Z,9.88
2024-02-29T05:40:33.692Z,9.88
2024-02-29T05:45:55.481Z,10.68
2024-02-29T05:51:17.259Z,10.95
2024-02-29T05:56:38.994Z,10.57
2024-02-29T06:02:00.921Z,10.75
2024-02-29T06:07:22.920Z,10.45
2024-02-29T06:12:44.716Z,12.20
2024-02-29T06:18:06.650Z,13.18
2024-02-29T06:23:28.453Z,13.10
2024-02-29T06:28:50.186Z,11.55
2024-02-29T06:34:11.960Z,12.27
2024-02-29T06:39:34.437Z,12.93
2024-02-29T06:44:56.268Z,12.07
2024-02-29T06:50:18.118Z,14.30
